KLBB METAR and TAF | Updated Today

KLBB METAR

Lubbock Preston Smith International Airport

Observation time: 19 min. ago

KLBB 261453Z 08022G28KT 10SM CLR 24/16 A3030 RMK AO2 PK WND 07028/1452 SLP208 T02390161 51025

Need help? Read our tutorial on how to read METARs or read the parsed version below.

Lubbock Preston Smith International Airport (KLBB) METAR

  • Weather conditions on Sun, 26 Jun 2022 14:53:00 +0000 (19 min. ago):
  • Present conditions: Dry
  • Clouds: Clear skies
  • Visibility: 16093 meters
  • Wind: 80 degrees at 22 knots
  • Temperature: 24 celsius
  • Dew point: 16 celsius
  • Pressure: 30.3 inHg
  • Remarks: AO2 PK WND 07028/1452 SLP208 T02390161 51025


Useful to know...

KLBB TAF

Lubbock Preston Smith International Airport

KLBB 261506Z 2615/2712 06020KT P6SM SCT020 SCT080
Observation time: 6 min. ago
Need help? Read our tutorial on how to read TAFs or read the parsed version below.

Parsed version of TAF for Lubbock Preston Smith International Airport (KLBB)

  • From 26 June at 15:00 UTC, to day 27 of the month at 12:00 UTC
  • Clouds: Scattered at 610 meters; scattered at 2438 meters
  • Wind: 60 degrees at 20

Airports near KLBB

KPVW Weather
Region: Plainview

Hale County Airport

Not found in our database